Time;durP1;ratioP1;P1;durP2;ratioP2;P2;SDS_P1;SDS_P2;PMS_P1;PMS_P2;Temp;Humidity;BMP_temperature;BMP_pressure;BME280_temperature;BME280_humidity;BME280_pressure;Samples;Min_cycle;Max_cycle;Signal;HPM_P1;HPM_P2
2021/03/30 00:02:03;;;;;;;11.80;6.82;;;9.80;83.20;;;;;;5034025;28;20312;-41
2021/03/30 00:04:31;;;;;;;9.90;6.85;;;9.70;83.40;;;;;;5034233;28;20225;-41
2021/03/30 00:06:58;;;;;;;10.20;7.38;;;9.60;83.70;;;;;;5034082;28;20209;-41
2021/03/30 00:09:25;;;;;;;10.90;7.50;;;9.60;84.30;;;;;;5033950;28;20769;-41
2021/03/30 00:11:52;;;;;;;10.63;6.95;;;9.50;84.30;;;;;;5034043;28;20555;-41
2021/03/30 00:14:19;;;;;;;10.45;6.63;;;9.40;84.80;;;;;;5033713;28;20212;-40
2021/03/30 00:16:46;;;;;;;8.70;7.13;;;9.40;85.30;;;;;;5033677;28;20295;-40
2021/03/30 00:19:13;;;;;;;9.48;6.75;;;9.30;85.70;;;;;;5033548;28;20209;-40
2021/03/30 00:21:40;;;;;;;9.05;6.68;;;9.20;86.10;;;;;;5033656;28;20276;-41
2021/03/30 00:24:09;;;;;;;12.13;7.95;;;9.20;86.60;;;;;;5033841;28;20208;-40
2021/03/30 00:26:36;;;;;;;14.18;7.68;;;9.10;87.00;;;;;;5033748;28;20304;-41
2021/03/30 00:29:03;;;;;;;11.25;7.45;;;9.00;87.40;;;;;;5033887;28;20251;-41
2021/03/30 00:31:31;;;;;;;12.75;8.32;;;9.00;88.00;;;;;;5033665;28;20294;-40
2021/03/30 00:33:58;;;;;;;10.02;7.10;;;8.90;88.40;;;;;;5033491;28;20204;-40
2021/03/30 00:36:25;;;;;;;8.38;7.05;;;8.90;88.70;;;;;;5033469;28;20205;-40
2021/03/30 00:38:52;;;;;;;8.40;6.60;;;8.80;89.00;;;;;;5033581;28;20239;-40
2021/03/30 00:41:20;;;;;;;8.75;6.70;;;8.80;89.30;;;;;;5033402;28;20212;-40
2021/03/30 00:43:47;;;;;;;9.55;7.28;;;8.80;89.50;;;;;;5033748;28;20244;-40
2021/03/30 00:46:17;;;;;;;7.53;6.72;;;8.80;89.80;;;;;;5033528;28;20326;-39
2021/03/30 00:48:46;;;;;;;7.65;6.82;;;8.80;90.00;;;;;;5033585;28;20266;-40
2021/03/30 00:51:14;;;;;;;8.93;6.28;;;8.70;90.10;;;;;;5033267;28;20604;-40
2021/03/30 00:53:41;;;;;;;8.98;7.38;;;8.70;90.20;;;;;;5033219;28;20304;-40
2021/03/30 00:56:08;;;;;;;9.00;6.75;;;8.70;90.40;;;;;;5033438;28;20288;-40
2021/03/30 00:58:36;;;;;;;10.82;7.50;;;8.70;90.50;;;;;;5033076;28;20303;-40
2021/03/30 01:01:03;;;;;;;11.18;7.30;;;8.60;90.60;;;;;;5033189;28;20743;-40
2021/03/30 01:03:30;;;;;;;8.77;7.40;;;8.60;90.70;;;;;;5032988;28;20209;-40
2021/03/30 01:05:57;;;;;;;10.07;6.85;;;8.50;90.80;;;;;;5032957;28;20319;-40
2021/03/30 01:08:41;;;;;;;9.95;8.30;;;8.50;91.00;;;;;;5032819;28;20731;-40
2021/03/30 01:11:22;;;;;;;13.30;10.30;;;8.50;91.00;;;;;;5033122;28;20243;-40
2021/03/30 01:14:06;;;;;;;9.18;7.95;;;8.50;91.10;;;;;;5033019;28;20244;-40
2021/03/30 01:16:39;;;;;;;13.00;8.43;;;8.50;91.20;;;;;;5033028;28;20572;-41
2021/03/30 01:19:22;;;;;;;11.55;7.85;;;8.50;91.30;;;;;;5032977;28;20299;-41
2021/03/30 01:22:12;;;;;;;10.63;8.88;;;8.40;91.40;;;;;;5032674;28;20241;-40
2021/03/30 01:24:45;;;;;;;18.58;11.60;;;8.40;91.50;;;;;;5032870;28;20260;-41
2021/03/30 01:27:24;;;;;;;10.02;8.45;;;8.30;91.50;;;;;;5032663;28;20303;-40
2021/03/30 01:29:53;;;;;;;10.13;7.60;;;8.30;91.70;;;;;;5032807;28;20212;-40
2021/03/30 01:32:28;;;;;;;10.48;8.02;;;8.30;91.70;;;;;;5031932;28;20243;-40
2021/03/30 01:34:58;;;;;;;7.45;6.75;;;8.30;91.70;;;;;;5032632;28;20204;-40
2021/03/30 01:37:26;;;;;;;8.43;7.63;;;8.30;91.80;;;;;;5032526;28;20251;-40
2021/03/30 01:39:56;;;;;;;9.10;7.85;;;8.30;91.80;;;;;;5032401;28;20258;-40
2021/03/30 01:42:26;;;;;;;14.70;10.35;;;8.30;91.90;;;;;;5032698;28;20297;-40
2021/03/30 01:44:54;;;;;;;14.60;10.63;;;8.30;91.90;;;;;;5032492;28;20229;-40
2021/03/30 01:47:23;;;;;;;9.05;7.15;;;8.30;91.90;;;;;;5032444;28;20231;-40
2021/03/30 01:49:50;;;;;;;12.13;7.65;;;8.20;91.90;;;;;;5032178;28;20714;-41
2021/03/30 01:52:19;;;;;;;7.45;6.75;;;8.20;92.00;;;;;;5032178;28;20248;-41
2021/03/30 01:54:48;;;;;;;8.07;6.47;;;8.20;92.00;;;;;;5032190;28;20613;-40
2021/03/30 01:57:19;;;;;;;9.82;6.43;;;8.20;91.90;;;;;;5032186;28;20247;-40
2021/03/30 01:59:48;;;;;;;9.10;6.68;;;8.20;92.00;;;;;;5032279;28;20287;-40
2021/03/30 02:02:17;;;;;;;8.88;6.43;;;8.20;92.00;;;;;;5031914;28;20729;-40
2021/03/30 02:04:44;;;;;;;7.53;6.82;;;8.20;92.10;;;;;;5032005;28;20224;-40
2021/03/30 02:07:15;;;;;;;8.80;7.57;;;8.20;92.10;;;;;;5032209;28;20259;-40
2021/03/30 02:09:46;;;;;;;9.35;6.70;;;8.20;92.10;;;;;;5031952;28;20303;-40
2021/03/30 02:12:15;;;;;;;13.40;6.68;;;8.20;92.10;;;;;;5031936;28;20223;-40
2021/03/30 02:14:43;;;;;;;7.70;6.60;;;8.10;92.10;;;;;;5031751;28;20628;-40
2021/03/30 02:17:19;;;;;;;7.43;6.10;;;8.10;92.20;;;;;;5031807;28;20244;-40
2021/03/30 02:19:52;;;;;;;7.97;6.57;;;8.10;92.30;;;;;;5031968;28;20569;-40
2021/03/30 02:22:26;;;;;;;8.50;6.45;;;8.10;92.40;;;;;;5031743;28;20340;-39
2021/03/30 02:24:54;;;;;;;11.02;6.25;;;8.10;92.40;;;;;;5031811;28;20322;-39
2021/03/30 02:27:23;;;;;;;8.35;6.82;;;8.00;92.40;;;;;;5031845;28;20657;-39
2021/03/30 02:29:51;;;;;;;8.25;5.82;;;7.90;92.50;;;;;;5031791;28;20251;-39
2021/03/30 02:32:19;;;;;;;8.40;7.00;;;8.00;92.60;;;;;;5031791;28;20243;-39
2021/03/30 02:34:50;;;;;;;10.07;6.72;;;7.90;92.60;;;;;;5031674;28;20244;-39
2021/03/30 02:37:20;;;;;;;10.32;6.78;;;7.90;92.70;;;;;;5031624;28;20691;-40
2021/03/30 02:39:49;;;;;;;7.80;7.00;;;7.90;92.70;;;;;;5031660;28;20244;-39
2021/03/30 02:42:19;;;;;;;8.00;5.95;;;7.90;92.80;;;;;;5032112;28;20274;-40
2021/03/30 02:44:47;;;;;;;7.03;6.35;;;7.80;92.80;;;;;;5035664;28;20255;-39
2021/03/30 02:47:16;;;;;;;11.15;7.13;;;7.80;93.20;;;;;;5035589;28;20248;-39
2021/03/30 02:49:45;;;;;;;8.90;7.68;;;7.80;92.90;;;;;;5035797;28;20706;-39
2021/03/30 02:52:14;;;;;;;9.38;6.60;;;7.80;93.10;;;;;;5035535;28;20260;-40
2021/03/30 02:54:42;;;;;;;8.38;6.70;;;7.70;93.20;;;;;;5036121;28;20212;-40
2021/03/30 02:57:10;;;;;;;8.57;7.32;;;7.70;93.30;;;;;;5035744;28;20289;-40
2021/03/30 02:59:37;;;;;;;8.40;7.40;;;7.70;93.40;;;;;;5035473;28;20428;-40
2021/03/30 03:02:05;;;;;;;10.40;7.75;;;7.60;93.50;;;;;;5035757;28;20209;-40
2021/03/30 03:04:33;;;;;;;8.38;7.57;;;7.60;93.60;;;;;;5035378;28;20308;-40
2021/03/30 03:07:02;;;;;;;7.50;6.78;;;7.60;93.80;;;;;;5035224;28;20598;-40
2021/03/30 03:09:30;;;;;;;7.88;6.65;;;7.50;94.00;;;;;;5035363;28;20295;-40
2021/03/30 03:11:57;;;;;;;10.52;7.20;;;7.50;94.10;;;;;;5035356;28;20205;-40
2021/03/30 03:14:25;;;;;;;12.15;7.78;;;7.40;94.20;;;;;;5034985;28;20256;-41
2021/03/30 03:16:53;;;;;;;10.73;7.03;;;7.40;94.40;;;;;;5035071;28;20204;-40
2021/03/30 03:19:22;;;;;;;12.20;8.23;;;7.30;94.50;;;;;;5035208;28;20642;-40
2021/03/30 03:21:50;;;;;;;8.60;6.82;;;7.30;94.60;;;;;;5034730;28;20671;-40
2021/03/30 03:24:17;;;;;;;12.98;7.35;;;7.30;94.80;;;;;;5035186;28;20208;-40
2021/03/30 03:26:45;;;;;;;9.20;6.18;;;7.20;94.90;;;;;;5035031;28;20264;-40
2021/03/30 03:29:18;;;;;;;9.35;7.53;;;7.20;95.00;;;;;;5034729;28;20675;-40
2021/03/30 03:31:47;;;;;;;9.65;7.25;;;7.20;95.10;;;;;;5034753;28;20754;-40
2021/03/30 03:34:15;;;;;;;8.52;7.65;;;7.20;95.20;;;;;;5034617;28;20313;-40
2021/03/30 03:36:44;;;;;;;9.10;6.93;;;7.20;95.30;;;;;;5034652;28;20300;-39
2021/03/30 03:39:13;;;;;;;9.80;6.90;;;7.10;95.40;;;;;;5034787;28;20571;-40
2021/03/30 03:41:41;;;;;;;9.30;8.32;;;7.10;95.50;;;;;;5034976;28;20303;-40
2021/03/30 03:44:10;;;;;;;10.43;8.48;;;7.10;95.60;;;;;;5034557;28;20297;-40
2021/03/30 03:46:37;;;;;;;12.98;8.13;;;7.10;95.70;;;;;;5034414;28;20236;-40
2021/03/30 03:49:06;;;;;;;9.32;7.80;;;7.10;95.70;;;;;;5034647;28;20560;-40
2021/03/30 03:51:37;;;;;;;12.45;7.93;;;7.10;95.80;;;;;;5034433;28;20402;-40
2021/03/30 03:54:08;;;;;;;10.95;7.75;;;7.00;95.90;;;;;;5033561;28;20255;-40
2021/03/30 03:56:40;;;;;;;8.32;7.53;;;7.00;96.00;;;;;;5034288;28;20284;-40
2021/03/30 03:59:11;;;;;;;13.82;7.97;;;7.00;96.00;;;;;;5034228;28;20695;-40
2021/03/30 04:01:44;;;;;;;10.10;8.32;;;7.00;96.10;;;;;;5034065;28;20667;-40
2021/03/30 04:04:18;;;;;;;10.32;8.38;;;7.00;96.10;;;;;;5033881;28;20251;-40
2021/03/30 04:06:49;;;;;;;11.65;7.85;;;7.00;96.20;;;;;;5033805;28;20315;-40
2021/03/30 04:09:20;;;;;;;14.95;8.18;;;6.90;96.20;;;;;;5033835;28;20266;-39
2021/03/30 04:11:49;;;;;;;9.13;7.30;;;6.90;96.30;;;;;;5033759;28;20240;-39
2021/03/30 04:14:18;;;;;;;12.30;7.53;;;6.90;96.30;;;;;;5034088;28;20241;-39
2021/03/30 04:16:46;;;;;;;10.73;8.57;;;6.90;96.40;;;;;;5034087;28;20219;-40
2021/03/30 04:19:13;;;;;;;15.52;9.18;;;6.90;96.50;;;;;;5033782;28;20299;-40
2021/03/30 04:21:40;;;;;;;10.68;7.32;;;6.90;96.60;;;;;;5033681;28;20271;-40
2021/03/30 04:24:08;;;;;;;11.63;7.50;;;6.90;96.60;;;;;;5033734;28;20698;-40
2021/03/30 04:26:35;;;;;;;10.38;8.52;;;6.90;96.60;;;;;;5033314;28;20323;-40
2021/03/30 04:29:03;;;;;;;11.25;7.53;;;6.90;96.70;;;;;;5033558;28;20303;-40
2021/03/30 04:31:31;;;;;;;12.05;8.20;;;6.90;96.70;;;;;;5033625;28;20303;-40
2021/03/30 04:33:58;;;;;;;13.73;9.68;;;6.90;96.70;;;;;;5033483;28;20299;-40
2021/03/30 04:36:25;;;;;;;8.93;7.65;;;6.90;96.70;;;;;;5033651;28;20292;-40
2021/03/30 04:38:52;;;;;;;11.43;8.05;;;6.90;96.70;;;;;;5033916;28;20308;-39
2021/03/30 04:41:19;;;;;;;10.65;7.88;;;7.00;96.70;;;;;;5033278;28;20727;-39
2021/03/30 04:43:46;;;;;;;13.85;8.23;;;7.00;96.70;;;;;;5033266;28;20209;-41
2021/03/30 04:46:13;;;;;;;10.25;7.85;;;7.00;96.70;;;;;;5033302;28;20236;-40
2021/03/30 04:48:41;;;;;;;9.57;7.25;;;7.00;96.70;;;;;;5033440;28;20292;-40
2021/03/30 04:51:08;;;;;;;8.63;7.50;;;7.00;96.70;;;;;;5033393;28;20644;-40
2021/03/30 04:53:35;;;;;;;12.43;7.85;;;7.00;96.70;;;;;;5033177;28;20286;-40
2021/03/30 04:56:04;;;;;;;11.18;7.30;;;7.00;96.70;;;;;;5033156;28;20254;-40
2021/03/30 04:58:31;;;;;;;10.88;7.68;;;7.00;96.70;;;;;;5032946;28;20209;-42
2021/03/30 05:01:01;;;;;;;9.23;7.78;;;7.00;96.70;;;;;;5033244;28;20258;-40
2021/03/30 05:03:28;;;;;;;8.18;6.93;;;7.10;96.70;;;;;;5033151;28;20220;-40
2021/03/30 05:05:56;;;;;;;10.20;8.02;;;7.10;96.60;;;;;;5032858;28;20302;-40
2021/03/30 05:08:23;;;;;;;11.80;7.97;;;7.10;96.50;;;;;;5033143;28;20244;-40
2021/03/30 05:10:51;;;;;;;13.50;7.43;;;7.20;96.40;;;;;;5033010;28;20236;-40
2021/03/30 05:13:18;;;;;;;13.38;6.57;;;7.20;96.30;;;;;;5032989;28;20709;-40
2021/03/30 05:15:45;;;;;;;10.48;7.63;;;7.30;96.20;;;;;;5033032;28;20286;-41
2021/03/30 05:18:12;;;;;;;8.52;7.63;;;7.30;96.10;;;;;;5032943;28;20299;-41
2021/03/30 05:20:39;;;;;;;11.45;7.75;;;7.40;96.20;;;;;;5032763;28;20244;-41
2021/03/30 05:23:07;;;;;;;10.20;6.85;;;7.50;95.90;;;;;;5032585;28;20244;-41
2021/03/30 05:25:36;;;;;;;9.15;7.35;;;7.50;95.80;;;;;;5032760;28;20262;-41
2021/03/30 05:28:03;;;;;;;15.85;7.32;;;7.50;95.80;;;;;;5032841;28;20214;-41
2021/03/30 05:30:30;;;;;;;13.20;7.35;;;7.60;95.70;;;;;;5032749;28;20327;-41
2021/03/30 05:32:57;;;;;;;12.70;7.13;;;7.60;95.70;;;;;;5032569;28;20221;-40
2021/03/30 05:35:24;;;;;;;14.50;9.10;;;7.60;95.60;;;;;;5032754;28;20587;-40
2021/03/30 05:37:51;;;;;;;17.90;9.15;;;7.70;95.60;;;;;;5032765;28;20290;-40
2021/03/30 05:40:20;;;;;;;11.50;8.68;;;7.80;95.50;;;;;;5032888;28;20622;-40
2021/03/30 05:42:47;;;;;;;12.65;9.75;;;7.90;95.50;;;;;;5032589;28;20299;-40
2021/03/30 05:45:16;;;;;;;11.60;7.18;;;7.90;95.40;;;;;;5032379;28;20228;-40
2021/03/30 05:47:43;;;;;;;13.73;8.07;;;8.00;95.30;;;;;;5032189;28;20654;-40
2021/03/30 05:50:13;;;;;;;10.43;7.20;;;8.00;95.30;;;;;;5032241;28;20660;-40
2021/03/30 05:52:47;;;;;;;8.18;6.85;;;8.00;95.20;;;;;;5032316;28;20208;-40
2021/03/30 05:55:24;;;;;;;10.70;6.90;;;8.10;95.00;;;;;;5032093;28;20216;-40
2021/03/30 05:57:54;;;;;;;7.07;6.38;;;8.20;94.80;;;;;;5031825;28;20209;-40
2021/03/30 06:00:23;;;;;;;10.50;6.57;;;8.20;94.50;;;;;;5032214;28;20303;-40
2021/03/30 06:02:53;;;;;;;13.48;6.57;;;8.30;94.30;;;;;;5031878;28;20295;-40
2021/03/30 06:05:23;;;;;;;14.20;6.28;;;8.40;94.00;;;;;;5031758;28;20225;-42
2021/03/30 06:07:52;;;;;;;16.92;6.88;;;8.40;93.80;;;;;;5032402;28;20304;-42
2021/03/30 06:10:23;;;;;;;13.23;7.15;;;8.50;93.70;;;;;;5031770;28;20244;-41
2021/03/30 06:12:56;;;;;;;8.18;6.85;;;8.70;93.50;;;;;;5032029;28;20208;-41
2021/03/30 06:15:28;;;;;;;17.63;7.60;;;8.70;93.20;;;;;;5031826;28;20209;-41
2021/03/30 06:17:55;;;;;;;9.15;6.05;;;8.90;92.90;;;;;;5031311;28;20728;-40
2021/03/30 06:20:31;;;;;;;10.98;6.55;;;9.00;92.70;;;;;;5031587;28;20239;-40
2021/03/30 06:23:00;;;;;;;15.35;6.72;;;9.10;92.40;;;;;;5031352;28;20266;-39
2021/03/30 06:25:43;;;;;;;11.20;6.85;;;9.20;92.20;;;;;;5031576;28;20695;-41
2021/03/30 06:28:16;;;;;;;12.55;6.80;;;9.30;91.90;;;;;;5031764;28;20212;-41
2021/03/30 06:30:56;;;;;;;12.45;7.32;;;9.40;91.80;;;;;;5031682;28;20255;-41
2021/03/30 06:33:23;;;;;;;14.02;6.30;;;9.50;91.50;;;;;;5031541;28;20217;-44
2021/03/30 06:35:50;;;;;;;11.02;6.82;;;9.60;91.40;;;;;;5031826;28;20279;-42
2021/03/30 06:38:18;;;;;;;10.27;7.07;;;9.60;91.20;;;;;;5031812;28;20376;-41
2021/03/30 06:40:47;;;;;;;9.27;5.88;;;9.80;91.10;;;;;;5031596;28;20215;-44
2021/03/30 06:46:06;;;;;;;9.77;6.35;;;10.10;90.60;;;;;;5031332;28;20669;-42
2021/03/30 06:48:33;;;;;;;9.63;6.10;;;10.20;90.30;;;;;;5031649;28;20209;-41
2021/03/30 06:51:16;;;;;;;10.55;5.40;;;10.30;90.10;;;;;;5031510;28;20581;-42
2021/03/30 06:53:43;;;;;;;9.57;6.82;;;10.40;89.40;;;;;;5031478;28;20690;-41
2021/03/30 06:56:11;;;;;;;9.50;5.90;;;10.50;89.10;;;;;;5031284;28;20227;-40
2021/03/30 06:58:57;;;;;;;13.60;7.07;;;10.50;88.70;;;;;;5031102;28;20296;-40
2021/03/30 07:01:25;;;;;;;10.50;6.65;;;10.70;87.80;;;;;;5031327;28;20263;-40
2021/03/30 07:03:54;;;;;;;15.82;6.05;;;10.80;87.60;;;;;;5031147;28;20240;-41
2021/03/30 07:06:22;;;;;;;7.65;5.55;;;10.80;87.10;;;;;;5031124;28;20257;-40
2021/03/30 07:08:50;;;;;;;9.70;5.68;;;10.90;86.70;;;;;;5031150;28;20291;-41
2021/03/30 07:11:18;;;;;;;6.53;5.35;;;11.00;86.40;;;;;;5031116;28;20216;-41
2021/03/30 07:13:46;;;;;;;10.15;5.72;;;11.10;85.70;;;;;;5031448;28;20228;-41
2021/03/30 07:16:20;;;;;;;7.72;5.72;;;11.30;85.30;;;;;;5031202;28;20215;-40
2021/03/30 07:18:50;;;;;;;8.98;6.05;;;11.30;84.70;;;;;;5031233;28;20216;-39
2021/03/30 07:21:22;;;;;;;8.40;4.95;;;11.40;84.30;;;;;;5030952;28;20244;-39
2021/03/30 07:23:54;;;;;;;8.25;5.63;;;11.60;83.80;;;;;;5031259;28;20211;-40
2021/03/30 07:26:27;;;;;;;29.90;7.47;;;11.80;83.10;;;;;;5031251;28;20272;-40
2021/03/30 07:29:02;;;;;;;21.23;6.65;;;11.90;82.50;;;;;;5031349;28;20288;-41
2021/03/30 07:31:33;;;;;;;13.13;5.90;;;12.00;82.00;;;;;;5034729;28;20700;-39
2021/03/30 07:34:02;;;;;;;10.95;5.82;;;12.10;81.50;;;;;;5034564;28;20259;-40
2021/03/30 07:36:33;;;;;;;9.38;5.00;;;12.20;80.90;;;;;;5034676;28;20550;-40
2021/03/30 07:39:02;;;;;;;5.80;5.22;;;12.40;80.30;;;;;;5034560;28;20217;-42
2021/03/30 07:41:30;;;;;;;10.07;4.90;;;12.50;79.60;;;;;;5034614;28;20205;-40
2021/03/30 07:44:01;;;;;;;8.60;5.65;;;12.70;78.90;;;;;;5034347;28;20697;-40
2021/03/30 07:46:30;;;;;;;8.65;5.20;;;12.80;78.20;;;;;;5034211;28;20761;-40
2021/03/30 07:48:58;;;;;;;9.95;5.20;;;13.00;77.70;;;;;;5034498;28;20299;-40
2021/03/30 07:51:34;;;;;;;7.20;4.72;;;13.20;77.00;;;;;;5034521;28;20295;-42
2021/03/30 07:54:09;;;;;;;6.53;5.47;;;13.30;76.00;;;;;;5034408;28;20243;-42
2021/03/30 07:56:54;;;;;;;11.48;5.20;;;13.50;75.30;;;;;;5034113;28;20239;-40
2021/03/30 07:59:47;;;;;;;10.90;5.97;;;13.60;74.60;;;;;;5034312;28;20208;-40
2021/03/30 08:02:24;;;;;;;6.40;5.10;;;13.70;74.10;;;;;;5034058;28;20667;-40
2021/03/30 08:05:15;;;;;;;6.65;5.43;;;13.80;73.50;;;;;;5034224;28;20246;-40
2021/03/30 08:07:46;;;;;;;9.60;5.10;;;14.00;72.50;;;;;;5023919;28;20605;-40
2021/03/30 08:10:25;;;;;;;9.30;4.93;;;14.00;72.50;;;;;;5034247;28;20251;-39
2021/03/30 08:13:23;;;;;;;8.77;5.15;;;14.00;72.00;;;;;;5034037;28;20208;-39
2021/03/30 08:15:52;;;;;;;9.10;5.35;;;14.20;71.20;;;;;;5034053;28;20585;-39
2021/03/30 08:18:22;;;;;;;10.15;5.85;;;14.20;70.90;;;;;;5033981;28;20349;-39
2021/03/30 08:20:57;;;;;;;12.85;6.57;;;14.30;70.70;;;;;;5033908;28;20240;-39
2021/03/30 08:23:26;;;;;;;11.95;6.28;;;14.40;70.30;;;;;;5033674;28;20294;-39
2021/03/30 08:25:55;;;;;;;17.08;6.00;;;14.40;69.90;;;;;;5033478;28;20318;-39
2021/03/30 08:28:58;;;;;;;8.90;5.35;;;14.50;69.20;;;;;;5033835;28;20216;-39
2021/03/30 08:31:27;;;;;;;8.45;5.22;;;14.70;68.10;;;;;;5033728;28;20303;-39
2021/03/30 08:33:57;;;;;;;12.60;5.65;;;14.90;68.20;;;;;;5033584;28;20236;-40
2021/03/30 08:36:27;;;;;;;19.98;13.85;;;15.00;67.00;;;;;;5033367;28;20255;-40
2021/03/30 08:38:58;;;;;;;6.90;5.38;;;15.10;66.40;;;;;;5033402;28;20208;-40
2021/03/30 08:41:51;;;;;;;9.25;5.97;;;15.30;66.00;;;;;;5033268;28;20212;-40
2021/03/30 08:44:21;;;;;;;7.53;6.55;;;15.40;65.40;;;;;;5033422;28;20515;-42
2021/03/30 08:46:52;;;;;;;13.18;6.20;;;15.40;65.60;;;;;;5033090;28;20699;-44
2021/03/30 08:49:25;;;;;;;10.98;6.05;;;15.60;65.80;;;;;;5033457;28;20212;-43
2021/03/30 08:51:53;;;;;;;12.30;6.60;;;15.70;65.40;;;;;;5033186;28;20209;-42
2021/03/30 08:54:24;;;;;;;15.48;9.10;;;15.70;65.30;;;;;;5033008;28;20208;-46
2021/03/30 08:56:59;;;;;;;10.40;7.70;;;15.80;65.80;;;;;;5033108;28;20386;-43
2021/03/30 08:59:29;;;;;;;12.90;7.43;;;15.90;65.00;;;;;;5032991;28;20236;-42
2021/03/30 09:01:58;;;;;;;7.30;5.40;;;16.00;64.60;;;;;;5033007;28;20719;-42
2021/03/30 09:04:26;;;;;;;7.63;5.72;;;16.10;63.90;;;;;;5032941;28;20741;-44
2021/03/30 09:06:55;;;;;;;9.38;5.93;;;16.30;62.90;;;;;;5032865;28;20319;-43
2021/03/30 09:09:24;;;;;;;6.43;5.13;;;16.40;62.40;;;;;;5032969;28;20251;-43
2021/03/30 09:11:51;;;;;;;7.97;4.72;;;16.60;61.90;;;;;;5032773;28;20217;-41
2021/03/30 09:14:21;;;;;;;10.00;5.85;;;16.70;60.90;;;;;;5032989;28;20213;-41
2021/03/30 09:16:51;;;;;;;7.32;4.75;;;16.80;60.40;;;;;;5032909;28;20204;-41
2021/03/30 09:19:22;;;;;;;8.85;5.03;;;16.90;59.70;;;;;;5032833;28;20240;-41
2021/03/30 09:21:53;;;;;;;5.40;4.90;;;17.10;59.30;;;;;;5032536;28;20275;-42
2021/03/30 09:24:47;;;;;;;9.93;5.45;;;17.20;59.00;;;;;;5033052;28;20236;-42
2021/03/30 09:27:19;;;;;;;5.30;4.55;;;17.30;58.80;;;;;;5032458;28;20323;-42
2021/03/30 09:29:46;;;;;;;7.35;5.32;;;17.40;58.70;;;;;;5032693;28;20733;-42
2021/03/30 09:32:15;;;;;;;6.72;5.05;;;17.60;58.40;;;;;;5032698;28;20244;-45
2021/03/30 09:34:43;;;;;;;6.60;5.15;;;17.70;58.00;;;;;;5032512;28;20216;-39
2021/03/30 09:37:10;;;;;;;6.05;5.45;;;17.80;57.50;;;;;;5032691;28;20624;-39
2021/03/30 09:39:38;;;;;;;7.53;5.57;;;17.90;57.40;;;;;;5032658;28;20258;-40
2021/03/30 09:42:06;;;;;;;7.93;4.80;;;18.00;57.30;;;;;;5032599;28;20209;-39
2021/03/30 09:44:35;;;;;;;9.00;5.70;;;18.10;57.30;;;;;;5032419;28;20213;-38
2021/03/30 09:47:08;;;;;;;8.40;5.20;;;18.20;57.10;;;;;;5032083;28;20224;-38
2021/03/30 09:49:37;;;;;;;7.03;5.50;;;18.20;56.80;;;;;;5032247;28;20734;-39
2021/03/30 09:52:05;;;;;;;6.45;5.30;;;18.30;56.80;;;;;;5031752;28;20209;-39
2021/03/30 09:54:37;;;;;;;11.05;6.75;;;18.40;56.60;;;;;;5032437;28;20243;-40
2021/03/30 09:57:12;;;;;;;6.05;5.25;;;18.50;56.70;;;;;;5032206;28;20212;-41
2021/03/30 09:59:43;;;;;;;7.93;5.55;;;18.60;56.00;;;;;;5031979;28;20658;-41
2021/03/30 10:02:10;;;;;;;5.93;5.28;;;18.60;55.60;;;;;;5032437;28;20251;-40
2021/03/30 10:04:38;;;;;;;5.78;5.28;;;18.70;55.10;;;;;;5031993;28;20259;-41
2021/03/30 10:07:16;;;;;;;9.57;6.15;;;18.80;54.70;;;;;;5031957;28;20290;-41
2021/03/30 10:10:00;;;;;;;10.48;5.70;;;18.90;54.00;;;;;;5031982;28;20634;-44
2021/03/30 10:12:31;;;;;;;6.78;6.03;;;18.90;53.70;;;;;;5031913;28;20253;-41
2021/03/30 10:14:58;;;;;;;8.20;6.75;;;19.00;53.90;;;;;;5031937;28;20209;-42
2021/03/30 10:17:26;;;;;;;7.00;6.32;;;19.00;53.70;;;;;;5031901;28;20216;-42
2021/03/30 10:19:56;;;;;;;10.10;6.43;;;19.10;53.70;;;;;;5031990;28;20262;-45
2021/03/30 10:22:30;;;;;;;7.70;6.60;;;19.30;53.80;;;;;;5031991;28;20267;-41
2021/03/30 10:25:14;;;;;;;8.73;7.05;;;19.30;53.80;;;;;;5032255;28;20299;-42
2021/03/30 10:27:52;;;;;;;8.13;7.07;;;19.30;53.90;;;;;;5032270;28;20284;-42
2021/03/30 10:30:29;;;;;;;9.07;7.65;;;19.30;53.80;;;;;;5032257;28;20240;-39
2021/03/30 10:32:58;;;;;;;7.85;7.13;;;19.30;54.00;;;;;;5031967;28;20212;-42
2021/03/30 10:35:27;;;;;;;8.70;7.20;;;19.30;54.00;;;;;;5032287;28;20267;-43
2021/03/30 10:37:54;;;;;;;7.95;7.15;;;19.30;54.00;;;;;;5032152;28;20214;-41
2021/03/30 10:40:28;;;;;;;8.93;7.10;;;19.40;53.60;;;;;;5032094;28;20627;-42
2021/03/30 10:42:55;;;;;;;8.15;7.45;;;19.50;53.30;;;;;;5032193;28;20211;-41
2021/03/30 10:45:29;;;;;;;9.50;8.57;;;19.50;52.90;;;;;;5031978;28;20212;-41
2021/03/30 10:48:01;;;;;;;8.95;7.95;;;19.70;52.40;;;;;;5032141;28;20228;-41
2021/03/30 10:50:29;;;;;;;8.00;7.20;;;19.70;51.90;;;;;;5032055;28;20215;-40
2021/03/30 10:52:56;;;;;;;8.68;6.95;;;19.70;51.80;;;;;;5032034;28;20232;-40
2021/03/30 10:55:24;;;;;;;8.57;7.70;;;19.80;51.60;;;;;;5031473;28;20217;-41
2021/03/30 10:57:52;;;;;;;11.20;7.60;;;19.80;51.50;;;;;;5031664;28;20209;-41
2021/03/30 11:00:19;;;;;;;11.90;8.20;;;19.90;51.30;;;;;;5031535;28;20232;-41
2021/03/30 11:02:46;;;;;;;8.77;7.07;;;19.90;51.40;;;;;;5031736;28;20215;-43
2021/03/30 11:05:15;;;;;;;8.60;7.70;;;19.90;51.30;;;;;;5035410;28;20217;-42
2021/03/30 11:07:43;;;;;;;8.85;6.75;;;20.00;50.90;;;;;;5035387;28;20272;-41
2021/03/30 11:10:12;;;;;;;11.35;7.45;;;20.10;51.00;;;;;;5035087;28;20248;-40
2021/03/30 11:12:40;;;;;;;8.68;7.68;;;20.10;51.10;;;;;;5035091;28;20238;-40
2021/03/30 11:15:09;;;;;;;9.50;7.68;;;20.20;51.10;;;;;;5035054;28;20246;-40
2021/03/30 11:17:36;;;;;;;10.73;7.75;;;20.20;51.10;;;;;;5035482;28;20232;-40
2021/03/30 11:20:05;;;;;;;10.88;8.25;;;20.30;50.90;;;;;;5035068;28;20255;-40
2021/03/30 11:22:32;;;;;;;10.77;8.23;;;20.40;50.90;;;;;;5034850;28;20240;-40
2021/03/30 11:25:01;;;;;;;11.23;7.55;;;20.40;50.60;;;;;;5034955;28;20212;-40
2021/03/30 11:27:31;;;;;;;8.60;7.70;;;20.40;50.30;;;;;;5035124;28;20311;-40
2021/03/30 11:30:08;;;;;;;10.75;8.10;;;20.50;50.90;;;;;;5035292;28;20232;-40
2021/03/30 11:32:40;;;;;;;11.82;8.43;;;20.50;50.30;;;;;;5034878;28;20725;-40
2021/03/30 11:35:10;;;;;;;9.77;8.57;;;20.60;50.20;;;;;;5034876;28;20231;-40
2021/03/30 11:37:46;;;;;;;10.90;9.05;;;20.70;50.10;;;;;;5034845;28;20245;-41
2021/03/30 11:40:14;;;;;;;8.45;7.55;;;20.70;49.60;;;;;;5035052;28;20223;-41
2021/03/30 11:42:45;;;;;;;8.90;8.10;;;20.80;49.20;;;;;;5034999;28;20212;-41
2021/03/30 11:45:13;;;;;;;9.57;8.68;;;20.80;48.80;;;;;;5034966;28;20593;-41
2021/03/30 11:47:40;;;;;;;10.63;8.60;;;20.80;48.70;;;;;;5034667;28;20253;-40
2021/03/30 11:50:08;;;;;;;14.88;9.98;;;20.90;48.50;;;;;;5034622;28;20240;-40
2021/03/30 11:52:35;;;;;;;10.25;8.35;;;20.90;48.20;;;;;;5034793;28;20635;-40
2021/03/30 11:55:04;;;;;;;9.88;8.25;;;20.90;48.10;;;;;;5034618;28;20219;-41
2021/03/30 11:57:31;;;;;;;11.35;9.15;;;21.00;47.90;;;;;;5034655;28;20232;-40
2021/03/30 11:59:58;;;;;;;9.35;8.48;;;21.00;47.90;;;;;;5034427;28;20311;-40
2021/03/30 12:02:45;;;;;;;14.20;9.07;;;21.10;47.70;;;;;;5034331;28;20573;-41
2021/03/30 12:05:13;;;;;;;10.00;8.88;;;21.10;47.70;;;;;;5034435;28;20216;-42
2021/03/30 12:07:41;;;;;;;11.68;8.93;;;21.00;47.60;;;;;;5034187;28;20264;-41
2021/03/30 12:10:18;;;;;;;10.60;9.45;;;21.00;47.70;;;;;;5034169;28;20596;-41
2021/03/30 12:12:46;;;;;;;11.75;9.43;;;21.00;47.70;;;;;;5034156;28;20733;-41
2021/03/30 12:15:15;;;;;;;9.57;8.60;;;21.00;47.60;;;;;;5033365;28;20617;-41
2021/03/30 12:17:42;;;;;;;11.43;9.18;;;21.00;47.40;;;;;;5034298;28;20207;-41
2021/03/30 12:20:11;;;;;;;11.68;9.65;;;21.10;47.40;;;;;;5033969;28;20299;-45
2021/03/30 12:22:38;;;;;;;13.27;9.70;;;21.00;47.20;;;;;;5033908;28;20327;-44
2021/03/30 12:25:07;;;;;;;9.65;8.75;;;21.10;47.10;;;;;;5034401;28;20204;-44
2021/03/30 12:27:34;;;;;;;11.55;9.05;;;21.00;46.90;;;;;;5033661;28;20260;-42
2021/03/30 12:30:03;;;;;;;9.32;8.43;;;21.10;46.40;;;;;;5033897;28;20220;-44
2021/03/30 12:32:30;;;;;;;9.43;8.02;;;21.10;46.30;;;;;;5033982;28;20262;-42
2021/03/30 12:34:57;;;;;;;9.13;8.27;;;21.20;46.10;;;;;;5033749;28;20564;-43
2021/03/30 12:37:24;;;;;;;9.27;8.25;;;21.30;45.80;;;;;;5033970;28;20205;-41
2021/03/30 12:39:51;;;;;;;11.27;8.80;;;21.30;45.60;;;;;;5033763;28;20299;-41
2021/03/30 12:42:18;;;;;;;9.30;8.07;;;21.40;45.40;;;;;;5033633;28;20304;-42
2021/03/30 12:44:45;;;;;;;11.68;8.43;;;21.40;45.00;;;;;;5033721;28;20295;-42
2021/03/30 12:47:12;;;;;;;9.40;8.07;;;21.40;44.90;;;;;;5033621;28;20260;-48
2021/03/30 12:49:39;;;;;;;11.75;9.13;;;21.40;44.60;;;;;;5033552;28;20237;-41
2021/03/30 12:52:07;;;;;;;10.55;8.23;;;21.30;44.40;;;;;;5033697;28;20308;-42
2021/03/30 12:54:34;;;;;;;9.98;7.78;;;21.40;44.20;;;;;;5033178;28;20524;-41
2021/03/30 12:57:01;;;;;;;12.48;7.55;;;21.40;44.10;;;;;;5033481;28;20204;-42
2021/03/30 12:59:28;;;;;;;15.45;8.52;;;21.40;44.00;;;;;;5033443;28;20299;-43
2021/03/30 13:01:55;;;;;;;11.57;8.70;;;21.50;43.60;;;;;;5033187;28;20296;-41
2021/03/30 13:04:23;;;;;;;8.23;7.25;;;21.50;43.40;;;;;;5034380;28;20233;-42
2021/03/30 13:06:50;;;;;;;7.97;7.18;;;21.50;43.30;;;;;;5034243;28;20231;-40